createdAt,value
2018-04-27T00:00:07.499Z,17.7
2018-04-27T00:01:29.871Z,17.7
2018-04-27T00:02:49.695Z,17.7
2018-04-27T00:04:10.511Z,17.6
2018-04-27T00:05:30.400Z,17.5
2018-04-27T00:06:50.263Z,17.4
2018-04-27T00:08:10.090Z,17.4
2018-04-27T00:09:29.921Z,17.2
2018-04-27T00:10:49.742Z,17.2
2018-04-27T00:12:27.301Z,17.1
2018-04-27T00:13:49.687Z,17.1
2018-04-27T00:15:12.043Z,17.1
2018-04-27T00:16:36.978Z,17
2018-04-27T00:17:56.864Z,16.9
2018-04-27T00:19:21.733Z,16.8
2018-04-27T00:20:41.652Z,16.7
2018-04-27T00:22:04.050Z,16.7
2018-04-27T00:23:23.888Z,16.6
2018-04-27T00:24:48.828Z,16.6
2018-04-27T00:26:13.710Z,16.5
2018-04-27T00:27:33.541Z,16.4
2018-04-27T00:28:53.433Z,16.3
2018-04-27T00:30:13.249Z,16.1
2018-04-27T00:31:33.072Z,16.2
2018-04-27T00:32:52.931Z,16.1
2018-04-27T00:34:12.757Z,16.1
2018-04-27T00:35:35.157Z,16.1
2018-04-27T00:36:57.501Z,16.1
2018-04-27T00:38:17.330Z,16.1
2018-04-27T00:39:37.154Z,16
2018-04-27T00:40:56.979Z,16
2018-04-27T00:42:16.793Z,15.9
2018-04-27T00:43:39.157Z,16
2018-04-27T00:44:58.991Z,15.9
2018-04-27T00:46:21.367Z,15.9
2018-04-27T00:47:46.280Z,16
2018-04-27T00:49:13.706Z,15.9
2018-04-27T00:50:41.173Z,16
2018-04-27T00:52:01.031Z,16
2018-04-27T00:53:23.397Z,16.1
2018-04-27T00:54:43.232Z,16.1
2018-04-27T00:56:05.665Z,16
2018-04-27T00:57:28.018Z,16.1
2018-04-27T00:58:47.870Z,16.1
2018-04-27T01:00:07.719Z,15.9
2018-04-27T01:01:30.106Z,15.8
2018-04-27T01:02:52.500Z,15.8
2018-04-27T01:04:12.318Z,15.7
2018-04-27T01:05:32.147Z,15.5
2018-04-27T01:06:57.039Z,15.5
2018-04-27T01:08:19.388Z,15.5
2018-04-27T01:09:39.275Z,15.4
2018-04-27T01:11:01.651Z,15.3
2018-04-27T01:12:21.473Z,15.2
2018-04-27T01:13:46.357Z,15.4
2018-04-27T01:15:16.336Z,15.4
2018-04-27T01:16:41.259Z,15.3
2018-04-27T01:18:03.609Z,15.4
2018-04-27T01:19:23.439Z,15.4
2018-04-27T01:20:43.268Z,15.4
2018-04-27T01:22:03.104Z,15.3
2018-04-27T01:23:25.485Z,15.3
2018-04-27T01:24:45.379Z,15.3
2018-04-27T01:26:12.867Z,15
2018-04-27T01:27:32.722Z,15.2
2018-04-27T01:28:52.569Z,15.2
2018-04-27T01:30:19.985Z,15.3
2018-04-27T01:31:39.864Z,15.2
2018-04-27T01:32:59.683Z,15.2
2018-04-27T01:34:22.029Z,15.1
2018-04-27T01:35:41.855Z,15.1
2018-04-27T01:37:04.219Z,15.2
2018-04-27T01:38:26.636Z,15.1
2018-04-27T01:39:46.464Z,15.1
2018-04-27T01:41:11.359Z,15.1
2018-04-27T01:42:31.198Z,15.1
2018-04-27T01:43:51.043Z,15.1
2018-04-27T01:45:18.493Z,15
2018-04-27T01:46:38.310Z,15
2018-04-27T01:48:13.327Z,15
2018-04-27T01:49:35.727Z,15
2018-04-27T01:50:55.588Z,15.1
2018-04-27T01:52:15.451Z,14.7
2018-04-27T01:53:40.379Z,14.7
2018-04-27T01:55:00.273Z,14.6
2018-04-27T01:56:22.628Z,14.7
2018-04-27T01:57:45.023Z,14.5
2018-04-27T01:59:09.925Z,14.6
2018-04-27T02:00:34.868Z,14.5
2018-04-27T02:02:04.858Z,14.6
2018-04-27T02:03:27.214Z,14.5
2018-04-27T02:04:49.575Z,14.4
2018-04-27T02:06:09.462Z,14.4
2018-04-27T02:07:31.837Z,14.3
2018-04-27T02:08:51.694Z,14.3
2018-04-27T02:10:19.101Z,14.4
2018-04-27T02:11:38.955Z,14.3
2018-04-27T02:13:03.885Z,14.3
2018-04-27T02:14:26.298Z,14.3
2018-04-27T02:15:51.196Z,14.3
2018-04-27T02:17:11.102Z,14.3
2018-04-27T02:18:43.621Z,14.2
2018-04-27T02:20:03.450Z,14.2
2018-04-27T02:21:23.335Z,14.2
2018-04-27T02:22:43.196Z,14.1
2018-04-27T02:24:05.598Z,14.2
2018-04-27T02:25:25.458Z,14.2
2018-04-27T02:26:45.312Z,14.1
2018-04-27T02:28:05.174Z,14
2018-04-27T02:29:25.020Z,14.2
2018-04-27T02:30:44.875Z,14.5
2018-04-27T02:32:04.786Z,14.7
2018-04-27T02:33:24.659Z,13.1
2018-04-27T02:34:44.510Z,14.8
2018-04-27T02:36:04.353Z,15
2018-04-27T02:37:24.184Z,15
2018-04-27T02:38:44.022Z,15.4
2018-04-27T02:40:03.884Z,15.5
2018-04-27T02:41:23.772Z,15.7
2018-04-27T02:42:46.180Z,15.8
2018-04-27T02:44:11.080Z,15.9
2018-04-27T02:45:33.447Z,15.9
2018-04-27T02:46:53.289Z,16.1
2018-04-27T02:48:15.732Z,16.3
2018-04-27T02:49:38.159Z,16.4
2018-04-27T02:51:03.084Z,16.5
2018-04-27T02:52:22.914Z,16.5
2018-04-27T02:53:45.309Z,16.6
2018-04-27T02:55:05.166Z,16.7
2018-04-27T02:56:27.541Z,16.7
2018-04-27T02:57:47.390Z,16.8
2018-04-27T02:59:07.227Z,16.9
2018-04-27T03:00:29.615Z,17
2018-04-27T03:01:49.480Z,17
2018-04-27T03:03:16.948Z,17.1
2018-04-27T03:04:36.848Z,17
2018-04-27T03:05:56.714Z,16.9
2018-04-27T03:07:16.558Z,17
2018-04-27T03:08:36.390Z,17
2018-04-27T03:09:58.758Z,17.1
2018-04-27T03:11:18.605Z,17
2018-04-27T03:12:38.449Z,16.9
2018-04-27T03:13:58.287Z,17
2018-04-27T03:15:18.125Z,16.9
2018-04-27T03:16:50.667Z,16.8
2018-04-27T03:18:10.565Z,16.7
2018-04-27T03:19:30.446Z,16.7
2018-04-27T03:20:57.856Z,16.6
2018-04-27T03:22:17.689Z,16.5
2018-04-27T03:23:37.558Z,16.5
2018-04-27T03:24:57.398Z,16.3
2018-04-27T03:26:19.778Z,16.4
2018-04-27T03:27:44.683Z,16.2
2018-04-27T03:29:04.553Z,16.2
2018-04-27T03:30:29.454Z,16.2
2018-04-27T03:31:49.307Z,16
2018-04-27T03:33:09.166Z,15.9
2018-04-27T03:34:29.048Z,15.9
2018-04-27T03:35:53.962Z,15.9
2018-04-27T03:37:23.937Z,15.8
2018-04-27T03:38:43.804Z,15.9
2018-04-27T03:40:03.641Z,15.8
2018-04-27T03:41:23.470Z,15.8
2018-04-27T03:42:45.857Z,15.8
2018-04-27T03:44:05.732Z,15.6
2018-04-27T03:45:28.140Z,15.6
2018-04-27T03:46:50.550Z,15.6
2018-04-27T03:48:12.955Z,15.6
2018-04-27T03:49:35.369Z,15.5
2018-04-27T03:50:55.278Z,15.5
2018-04-27T03:52:15.177Z,15.5
2018-04-27T03:53:35.085Z,15.6
2018-04-27T03:54:57.443Z,15.5
2018-04-27T03:56:27.458Z,15.5
2018-04-27T03:57:47.340Z,15.4
2018-04-27T03:59:07.164Z,15.4
2018-04-27T04:00:42.134Z,15.4
2018-04-27T04:02:02.015Z,15.3
2018-04-27T04:03:29.447Z,15.1
2018-04-27T04:04:54.406Z,14.9
2018-04-27T04:06:14.243Z,14.8
2018-04-27T04:07:34.081Z,14.8
2018-04-27T04:08:53.955Z,14.7
2018-04-27T04:10:16.332Z,14.6
2018-04-27T04:11:38.693Z,14.4
2018-04-27T04:12:58.564Z,14.4
2018-04-27T04:14:20.935Z,14.5
2018-04-27T04:15:43.299Z,14.4
2018-04-27T04:17:08.197Z,14.4
2018-04-27T04:18:38.198Z,14.4
2018-04-27T04:20:03.077Z,14.4
2018-04-27T04:21:25.472Z,14.3
2018-04-27T04:22:50.397Z,14.4
2018-04-27T04:24:12.809Z,14.5
2018-04-27T04:25:35.211Z,14.5
2018-04-27T04:26:55.091Z,14.6
2018-04-27T04:28:14.947Z,14.5
2018-04-27T04:29:34.805Z,14.7
2018-04-27T04:30:54.687Z,14.6
2018-04-27T04:32:24.673Z,14.8
2018-04-27T04:33:47.039Z,14.9
2018-04-27T04:35:06.889Z,14.9
2018-04-27T04:36:26.732Z,14.8
2018-04-27T04:37:46.608Z,14.8
2018-04-27T04:39:06.467Z,14.7
2018-04-27T04:40:31.359Z,14.7
2018-04-27T04:41:56.279Z,14.8
2018-04-27T04:43:18.688Z,14.8
2018-04-27T04:44:46.124Z,14.7
2018-04-27T04:46:06.012Z,14.6
2018-04-27T04:47:25.854Z,14.5
2018-04-27T04:48:45.690Z,14.5
2018-04-27T04:50:08.065Z,14.5
2018-04-27T04:51:27.957Z,14.5
2018-04-27T04:52:47.789Z,14.5
2018-04-27T04:54:07.621Z,14.5
2018-04-27T04:55:32.521Z,14.5
2018-04-27T04:56:59.999Z,14.5
2018-04-27T04:58:22.362Z,14.6
2018-04-27T04:59:42.185Z,14.5
2018-04-27T05:01:02.028Z,14.4
2018-04-27T05:02:24.422Z,14.4
2018-04-27T05:03:44.299Z,14.3
2018-04-27T05:05:04.150Z,14.4
2018-04-27T05:06:29.099Z,14.5
2018-04-27T05:07:48.983Z,14.5
2018-04-27T05:09:11.367Z,14.5
2018-04-27T05:10:31.304Z,14.3
2018-04-27T05:11:51.135Z,14.2
2018-04-27T05:13:18.629Z,14
2018-04-27T05:14:43.560Z,13.7
2018-04-27T05:16:03.403Z,13.6
2018-04-27T05:17:25.784Z,13.6
2018-04-27T05:18:45.652Z,13.6
2018-04-27T05:20:05.494Z,13.6
2018-04-27T05:21:27.862Z,13.6
2018-04-27T05:22:50.290Z,13.6
2018-04-27T05:24:10.157Z,13.5
2018-04-27T05:25:32.546Z,13.4
2018-04-27T05:26:52.415Z,13.6
2018-04-27T05:28:14.858Z,13.6
2018-04-27T05:29:39.839Z,13.7
2018-04-27T05:30:59.707Z,14
2018-04-27T05:32:19.567Z,13.9
2018-04-27T05:33:44.541Z,13.9
2018-04-27T05:35:04.466Z,14.2
2018-04-27T05:36:26.828Z,14.2
2018-04-27T05:37:51.721Z,14.2
2018-04-27T05:39:11.631Z,14.1
2018-04-27T05:40:31.596Z,14.1
2018-04-27T05:41:53.971Z,14.1
2018-04-27T05:43:13.796Z,14.1
2018-04-27T05:44:33.658Z,14.1
2018-04-27T05:45:53.517Z,14.2
2018-04-27T05:47:13.351Z,14.2
2018-04-27T05:48:33.230Z,14.1
2018-04-27T05:49:55.607Z,14.1
2018-04-27T05:51:15.472Z,14
2018-04-27T05:52:35.334Z,14
2018-04-27T05:54:05.272Z,14.1
2018-04-27T05:55:30.204Z,14
2018-04-27T05:56:50.138Z,13.9
2018-04-27T05:58:10.020Z,14
2018-04-27T05:59:29.906Z,13.9
2018-04-27T06:00:49.804Z,14.2
2018-04-27T06:02:27.376Z,14.4
2018-04-27T06:03:47.207Z,14.4
2018-04-27T06:05:09.605Z,14.3
2018-04-27T06:06:29.459Z,14.1
2018-04-27T06:07:49.375Z,14.1
2018-04-27T06:09:09.273Z,14.1
2018-04-27T06:10:31.645Z,14.1
2018-04-27T06:11:54.018Z,14
2018-04-27T06:13:16.409Z,14
2018-04-27T06:14:36.281Z,14.1
2018-04-27T06:15:56.135Z,14
2018-04-27T06:17:16.012Z,14
2018-04-27T06:18:43.443Z,14.1
2018-04-27T06:20:03.300Z,14.1
2018-04-27T06:21:25.722Z,14
2018-04-27T06:22:50.612Z,14
2018-04-27T06:24:10.477Z,14.1
2018-04-27T06:25:30.318Z,14.1
2018-04-27T06:26:50.157Z,14.1
2018-04-27T06:28:12.525Z,14.1
2018-04-27T06:29:32.366Z,14.2
2018-04-27T06:30:52.252Z,14.3
2018-04-27T06:32:12.084Z,14.2
2018-04-27T06:33:39.524Z,14.2
2018-04-27T06:35:01.905Z,14.2
2018-04-27T06:36:21.740Z,14.2
2018-04-27T06:37:46.639Z,14.2
2018-04-27T06:39:16.590Z,14.4
2018-04-27T06:40:41.542Z,14.3
2018-04-27T06:42:03.943Z,14.4
2018-04-27T06:43:23.904Z,14.5
2018-04-27T06:44:46.304Z,14.5
2018-04-27T06:46:08.667Z,14.6
2018-04-27T06:47:33.633Z,14.7
2018-04-27T06:48:53.516Z,14.8
2018-04-27T06:50:20.963Z,14.8
2018-04-27T06:51:45.850Z,14.8
2018-04-27T06:53:08.270Z,14.9
2018-04-27T06:54:28.125Z,15
2018-04-27T06:55:47.960Z,15
2018-04-27T06:57:07.818Z,15
2018-04-27T06:58:37.819Z,15
2018-04-27T06:59:57.710Z,15
2018-04-27T07:01:17.545Z,15.1
2018-04-27T07:02:37.374Z,15.1
2018-04-27T07:03:59.779Z,15.1
2018-04-27T07:05:22.199Z,15.3
2018-04-27T07:06:42.040Z,15.3
2018-04-27T07:08:01.875Z,15.5
2018-04-27T07:09:21.733Z,15.6
2018-04-27T07:10:41.567Z,15.7
2018-04-27T07:12:03.956Z,16
2018-04-27T07:13:28.923Z,15.8
2018-04-27T07:14:48.746Z,16.2
2018-04-27T07:16:08.632Z,16.3
2018-04-27T07:17:28.537Z,16.6
2018-04-27T07:18:50.928Z,16.6
2018-04-27T07:20:10.762Z,16.8
2018-04-27T07:21:30.657Z,16.9
2018-04-27T07:22:50.505Z,17.4
2018-04-27T07:24:10.332Z,17.6
2018-04-27T07:25:30.167Z,17.7
2018-04-27T07:26:50.004Z,17.8
2018-04-27T07:28:09.899Z,17.7
2018-04-27T07:29:34.796Z,17.7
2018-04-27T07:31:02.263Z,17.8
2018-04-27T07:32:24.696Z,17.9
2018-04-27T07:33:47.060Z,17.9
2018-04-27T07:35:09.468Z,17.8
2018-04-27T07:36:29.332Z,17.9
2018-04-27T07:37:49.198Z,18.1
2018-04-27T07:39:09.112Z,18.2
2018-04-27T07:40:31.487Z,18.2
2018-04-27T07:41:51.312Z,18.3
2018-04-27T07:43:13.690Z,18.2
2018-04-27T07:44:41.145Z,18.1
2018-04-27T07:46:08.569Z,18.5
2018-04-27T07:47:30.991Z,18.5
2018-04-27T07:48:53.401Z,18.4
2018-04-27T07:50:15.774Z,18.3
2018-04-27T07:51:38.158Z,18.3
2018-04-27T07:52:57.991Z,18.3
2018-04-27T07:54:17.831Z,18.3
2018-04-27T07:55:42.785Z,18.3
2018-04-27T07:57:02.628Z,18.3
2018-04-27T07:58:25.006Z,18.1
2018-04-27T07:59:49.897Z,18.2
2018-04-27T08:01:09.767Z,18.3
2018-04-27T08:02:29.693Z,17.9
2018-04-27T08:03:49.612Z,18
2018-04-27T08:05:09.475Z,17.9
2018-04-27T08:06:29.371Z,17.8
2018-04-27T08:07:51.745Z,17.8
2018-04-27T08:09:11.617Z,17.8
2018-04-27T08:10:34.001Z,18
2018-04-27T08:11:53.931Z,18
2018-04-27T08:13:26.399Z,18
2018-04-27T08:14:48.833Z,17.9
2018-04-27T08:16:08.718Z,18
2018-04-27T08:17:28.616Z,18
2018-04-27T08:18:48.523Z,17.8
2018-04-27T08:20:08.377Z,17.8
2018-04-27T08:21:28.274Z,17.8
2018-04-27T08:22:50.654Z,17.8
2018-04-27T08:24:10.489Z,17.7
2018-04-27T08:25:32.860Z,17.7
2018-04-27T08:26:52.705Z,17.6
2018-04-27T08:28:12.541Z,17.6
2018-04-27T08:29:32.369Z,17.6
2018-04-27T08:31:02.396Z,17.5
2018-04-27T08:32:22.265Z,17.5
2018-04-27T08:33:42.101Z,17.5
2018-04-27T08:35:04.566Z,17.5
2018-04-27T08:36:24.470Z,17.6
2018-04-27T08:37:44.340Z,17.5
2018-04-27T08:39:04.197Z,17.5
2018-04-27T08:40:31.666Z,17.4
2018-04-27T08:41:51.509Z,17.4
2018-04-27T08:43:16.447Z,17.4
2018-04-27T08:44:36.286Z,17.4
2018-04-27T08:45:58.667Z,17.3
2018-04-27T08:47:21.030Z,17.3
2018-04-27T08:48:51.054Z,17.2
2018-04-27T08:50:13.438Z,17.3
2018-04-27T08:51:33.277Z,17.2
2018-04-27T08:52:55.708Z,17.2
2018-04-27T08:54:15.548Z,17.2
2018-04-27T08:55:37.928Z,17.1
2018-04-27T08:57:05.406Z,17.1
2018-04-27T08:58:32.886Z,17.2
2018-04-27T08:59:52.755Z,17.1
2018-04-27T09:01:12.597Z,17.1
2018-04-27T09:02:32.469Z,17.1
2018-04-27T09:03:52.317Z,17.1
2018-04-27T09:05:12.171Z,17.1
2018-04-27T09:06:34.523Z,17.1
2018-04-27T09:07:56.912Z,17.1
2018-04-27T09:09:16.810Z,17.1
2018-04-27T09:10:36.628Z,17
2018-04-27T09:11:56.460Z,17
2018-04-27T09:13:21.379Z,17.1
2018-04-27T09:14:46.287Z,17.1
2018-04-27T09:16:06.169Z,17.1
2018-04-27T09:17:33.630Z,17.1
2018-04-27T09:18:56.005Z,17.1
2018-04-27T09:20:18.420Z,17.1
2018-04-27T09:21:38.364Z,17.1
2018-04-27T09:23:00.760Z,17.1
2018-04-27T09:24:20.630Z,17
2018-04-27T09:25:40.487Z,17.1
2018-04-27T09:27:02.853Z,17
2018-04-27T09:28:22.717Z,17
2018-04-27T09:29:42.608Z,17
2018-04-27T09:31:02.469Z,17
2018-04-27T09:32:24.946Z,17.1
2018-04-27T09:33:54.964Z,17
2018-04-27T09:35:22.376Z,17
2018-04-27T09:36:52.338Z,17.1
2018-04-27T09:38:12.166Z,17.1
2018-04-27T09:39:37.088Z,17.1
2018-04-27T09:41:14.656Z,17.1
2018-04-27T09:42:39.571Z,17.1
2018-04-27T09:43:59.404Z,17.1
2018-04-27T09:45:24.342Z,17.1
2018-04-27T09:46:49.269Z,17.1
2018-04-27T09:48:09.132Z,17.1
2018-04-27T09:49:29.018Z,17.1
2018-04-27T09:50:48.950Z,17.1
2018-04-27T09:52:11.460Z,17.1
2018-04-27T09:53:33.844Z,17.1
2018-04-27T09:54:57.211Z,17.1
2018-04-27T09:56:19.574Z,17.1
2018-04-27T09:57:39.452Z,17.1
2018-04-27T09:58:59.309Z,17.1
2018-04-27T10:00:19.169Z,17.1
2018-04-27T10:01:51.648Z,17.1
2018-04-27T10:03:14.041Z,17.1
2018-04-27T10:04:33.965Z,17.1
2018-04-27T10:06:01.410Z,17.1
2018-04-27T10:07:21.283Z,17.1
2018-04-27T10:08:41.110Z,17.1
2018-04-27T10:10:00.950Z,17.1
2018-04-27T10:11:20.841Z,17.1
2018-04-27T10:12:43.253Z,17.1
2018-04-27T10:14:03.139Z,17.1
2018-04-27T10:15:22.965Z,17.1
2018-04-27T10:16:42.878Z,17.1
2018-04-27T10:18:07.797Z,17.2
2018-04-27T10:19:30.173Z,17.2
2018-04-27T10:20:52.584Z,17.2
2018-04-27T10:22:12.436Z,17.1
2018-04-27T10:23:39.881Z,17.1
2018-04-27T10:25:02.283Z,17.1
2018-04-27T10:26:22.117Z,17.1
2018-04-27T10:27:42.009Z,17.1
2018-04-27T10:29:01.875Z,17.1
2018-04-27T10:30:24.250Z,17.2
2018-04-27T10:31:44.115Z,17.2
2018-04-27T10:33:03.996Z,17.2
2018-04-27T10:34:23.852Z,17.3
2018-04-27T10:35:43.731Z,17.3
2018-04-27T10:37:06.093Z,17.4
2018-04-27T10:38:25.960Z,17.5
2018-04-27T10:39:48.352Z,17.6
2018-04-27T10:41:08.209Z,17.7
2018-04-27T10:42:30.582Z,17.8
2018-04-27T10:43:50.462Z,17.9
2018-04-27T10:45:10.300Z,18.1
2018-04-27T10:46:32.691Z,18.4
2018-04-27T10:47:57.644Z,18.6
2018-04-27T10:49:22.538Z,18.7
2018-04-27T10:50:47.479Z,18.8
2018-04-27T10:52:09.872Z,18.8
2018-04-27T10:53:32.284Z,18.9
2018-04-27T10:54:52.119Z,18.9
2018-04-27T10:56:22.077Z,19.3
2018-04-27T10:57:41.911Z,19.4
2018-04-27T10:59:04.288Z,19.5
2018-04-27T11:00:24.179Z,19.6
2018-04-27T11:01:44.036Z,19.5
2018-04-27T11:03:03.919Z,19.6
2018-04-27T11:04:23.785Z,19.6
2018-04-27T11:05:43.663Z,19.6
2018-04-27T11:07:06.026Z,19.6
2018-04-27T11:08:25.882Z,19.6
2018-04-27T11:09:50.778Z,19.5
2018-04-27T11:11:10.641Z,19.6
2018-04-27T11:12:35.581Z,19.8
2018-04-27T11:13:55.457Z,19.7
2018-04-27T11:15:15.339Z,19.8
2018-04-27T11:16:37.716Z,19.8
2018-04-27T11:18:05.240Z,19.8
2018-04-27T11:19:25.073Z,19.8
2018-04-27T11:20:47.448Z,19.8
2018-04-27T11:22:09.802Z,19.7
2018-04-27T11:23:29.696Z,19.6
2018-04-27T11:24:49.582Z,19.4
2018-04-27T11:26:09.446Z,19.4
2018-04-27T11:27:31.862Z,19.4
2018-04-27T11:28:51.705Z,19.5
2018-04-27T11:30:11.536Z,19.5
2018-04-27T11:31:33.932Z,19.5
2018-04-27T11:32:53.798Z,19.4
2018-04-27T11:34:13.720Z,19.4
2018-04-27T11:35:33.569Z,19.4
2018-04-27T11:37:01.036Z,19.4
2018-04-27T11:38:20.901Z,19.3
2018-04-27T11:39:43.287Z,19.2
2018-04-27T11:41:08.201Z,19.3
2018-04-27T11:42:28.078Z,19.3
2018-04-27T11:43:47.943Z,19.2
2018-04-27T11:45:10.318Z,19.2
2018-04-27T11:46:30.206Z,19.2
2018-04-27T11:47:50.167Z,19.2
2018-04-27T11:49:10.051Z,19.1
2018-04-27T11:50:29.897Z,19.1
2018-04-27T11:51:49.810Z,19.1
2018-04-27T11:53:09.648Z,19.1
2018-04-27T11:54:32.158Z,19.1
2018-04-27T11:55:52.001Z,19.2
2018-04-27T11:57:11.859Z,19.2
2018-04-27T11:58:34.294Z,19.2
2018-04-27T12:00:01.711Z,19.3
2018-04-27T12:01:21.542Z,19.4
2018-04-27T12:02:41.376Z,19.4
2018-04-27T12:04:01.262Z,19.4
2018-04-27T12:05:21.101Z,19.4
2018-04-27T12:06:40.949Z,19.5
2018-04-27T12:08:00.771Z,19.6
2018-04-27T12:09:23.151Z,19.7
2018-04-27T12:10:43.125Z,19.9
2018-04-27T12:12:08.067Z,20.3
2018-04-27T12:13:27.986Z,21
2018-04-27T12:14:55.426Z,21.7
2018-04-27T12:16:17.827Z,22.4
2018-04-27T12:17:50.315Z,22.9
2018-04-27T12:19:10.143Z,23.2
2018-04-27T12:20:30.035Z,23.5
2018-04-27T12:21:52.420Z,23.7
2018-04-27T12:23:19.896Z,23.9
2018-04-27T12:24:39.759Z,24
2018-04-27T12:25:59.598Z,24.2
2018-04-27T12:27:29.542Z,24.3
2018-04-27T12:28:49.424Z,24.3
2018-04-27T12:30:16.873Z,24.4
2018-04-27T12:31:56.973Z,24.4
2018-04-27T12:33:16.810Z,24.4
2018-04-27T12:34:36.651Z,24.4
2018-04-27T12:35:56.494Z,24.3
2018-04-27T12:37:23.907Z,24.1
2018-04-27T12:38:43.747Z,24
2018-04-27T12:40:13.733Z,23.8
2018-04-27T12:41:38.620Z,23.6
2018-04-27T12:42:58.476Z,23.3
2018-04-27T12:44:23.430Z,23.1
2018-04-27T12:45:43.288Z,22.8
2018-04-27T12:47:05.676Z,22.6
2018-04-27T12:48:25.569Z,22.3
2018-04-27T12:49:50.462Z,22.1
2018-04-27T12:51:10.299Z,21.9
2018-04-27T12:52:32.708Z,21.7
2018-04-27T12:54:05.185Z,21.7
2018-04-27T12:55:27.576Z,21.5
2018-04-27T12:56:47.431Z,21.5
2018-04-27T12:58:09.795Z,21.4
2018-04-27T12:59:34.699Z,21.4
2018-04-27T13:00:54.541Z,21.3
2018-04-27T13:02:14.415Z,21.2
2018-04-27T13:03:36.783Z,21.1
2018-04-27T13:04:59.185Z,21.1
2018-04-27T13:06:19.023Z,21.1
2018-04-27T13:07:46.435Z,21
2018-04-27T13:09:06.319Z,21.1
2018-04-27T13:10:26.162Z,21.1
2018-04-27T13:11:51.061Z,21.1
2018-04-27T13:13:10.903Z,21
2018-04-27T13:14:30.726Z,20.9
2018-04-27T13:15:53.215Z,20.9
2018-04-27T13:17:13.093Z,20.9
2018-04-27T13:18:32.962Z,21
2018-04-27T13:19:55.363Z,20.9
2018-04-27T13:21:15.197Z,20.8
2018-04-27T13:22:40.139Z,20.7
2018-04-27T13:24:02.544Z,20.7
2018-04-27T13:25:22.440Z,20.6
2018-04-27T13:27:00.067Z,20.7
2018-04-27T13:28:32.600Z,20.7
2018-04-27T13:29:52.474Z,20.6
2018-04-27T13:31:14.832Z,20.6
2018-04-27T13:32:34.703Z,20.6
2018-04-27T13:34:04.664Z,20.5
2018-04-27T13:35:27.041Z,20.6
2018-04-27T13:36:46.874Z,20.6
2018-04-27T13:38:09.300Z,20.4
2018-04-27T13:39:29.149Z,20.5
2018-04-27T13:40:48.987Z,20.5
2018-04-27T13:42:13.940Z,20.5
2018-04-27T13:43:36.292Z,20.5
2018-04-27T13:44:56.132Z,20.5
2018-04-27T13:46:21.039Z,20.5
2018-04-27T13:47:45.977Z,20.7
2018-04-27T13:49:08.336Z,20.4
2018-04-27T13:50:30.741Z,20.4
2018-04-27T13:51:50.648Z,20.4
2018-04-27T13:53:15.558Z,20.5
2018-04-27T13:54:40.457Z,20
2018-04-27T13:56:00.296Z,19.9
2018-04-27T13:57:20.249Z,19.7
2018-04-27T13:58:42.785Z,19.9
2018-04-27T14:00:02.710Z,19.9
2018-04-27T14:01:22.573Z,20
2018-04-27T14:02:42.527Z,20
2018-04-27T14:04:04.908Z,20.2
2018-04-27T14:05:29.887Z,20
2018-04-27T14:06:57.378Z,19.7
2018-04-27T14:08:17.251Z,19.8
2018-04-27T14:09:37.116Z,20.1
2018-04-27T14:11:02.073Z,19.9
2018-04-27T14:12:21.967Z,20.4
2018-04-27T14:13:41.865Z,20.5
2018-04-27T14:15:14.390Z,20.4
2018-04-27T14:16:39.338Z,20.4
2018-04-27T14:17:59.193Z,20.3
2018-04-27T14:19:26.673Z,20.2
2018-04-27T14:20:51.601Z,20.3
2018-04-27T14:22:13.959Z,20.3
2018-04-27T14:23:38.903Z,20.2
2018-04-27T14:24:58.773Z,20.1
2018-04-27T14:26:18.613Z,20.1
2018-04-27T14:27:40.978Z,20.2
2018-04-27T14:29:00.882Z,20.2
2018-04-27T14:30:23.271Z,20
2018-04-27T14:31:43.108Z,19.9
2018-04-27T14:33:03.002Z,19.8
2018-04-27T14:34:25.360Z,19.9
2018-04-27T14:35:45.218Z,19.9
2018-04-27T14:37:05.057Z,19.9
2018-04-27T14:38:27.475Z,20
2018-04-27T14:39:47.333Z,19.8
2018-04-27T14:41:17.281Z,19.7
2018-04-27T14:42:44.771Z,19.6
2018-04-27T14:44:09.675Z,19.4
2018-04-27T14:45:29.555Z,19.3
2018-04-27T14:46:49.406Z,19.4
2018-04-27T14:48:09.237Z,19.4
2018-04-27T14:49:29.120Z,19.3
2018-04-27T14:50:51.472Z,19.3
2018-04-27T14:52:11.307Z,19.3
2018-04-27T14:53:31.168Z,19.3
2018-04-27T14:54:56.091Z,19.2
2018-04-27T14:56:21.000Z,19.2
2018-04-27T14:57:43.392Z,19.2
2018-04-27T14:59:03.280Z,19.1
2018-04-27T15:00:28.201Z,19.1
2018-04-27T15:01:48.039Z,19.1
2018-04-27T15:03:07.934Z,19
2018-04-27T15:04:27.793Z,19
2018-04-27T15:05:47.662Z,19.1
2018-04-27T15:07:10.044Z,18.8
2018-04-27T15:08:29.882Z,18.8
2018-04-27T15:09:54.796Z,18.8
2018-04-27T15:11:14.629Z,18.8
2018-04-27T15:12:37.079Z,18.7
2018-04-27T15:13:56.976Z,18.9
2018-04-27T15:15:16.810Z,18.9
2018-04-27T15:16:36.677Z,18.8
2018-04-27T15:17:59.092Z,18.8
2018-04-27T15:19:29.057Z,18.8
2018-04-27T15:20:51.422Z,18.8
2018-04-27T15:22:13.835Z,18.6
2018-04-27T15:23:33.669Z,18.6
2018-04-27T15:25:01.114Z,18.9
2018-04-27T15:26:20.941Z,18.9
2018-04-27T15:27:40.774Z,18.6
2018-04-27T15:29:00.613Z,18.6
2018-04-27T15:30:20.498Z,19.1
2018-04-27T15:31:40.357Z,19
2018-04-27T15:33:02.763Z,19
2018-04-27T15:34:22.645Z,19.1
2018-04-27T15:35:42.525Z,19.2
2018-04-27T15:37:02.421Z,19
2018-04-27T15:38:27.391Z,18.1
2018-04-27T15:39:49.756Z,18
2018-04-27T15:41:09.640Z,18
2018-04-27T15:42:39.594Z,18
2018-04-27T15:43:59.488Z,18.1
2018-04-27T15:45:19.318Z,18
2018-04-27T15:46:41.681Z,18
2018-04-27T15:48:04.094Z,18
2018-04-27T15:49:23.969Z,17.9
2018-04-27T15:50:43.886Z,17.9
2018-04-27T15:52:03.724Z,17.8
2018-04-27T15:53:23.576Z,17.8
2018-04-27T15:54:44.432Z,17.8
2018-04-27T15:56:09.330Z,17.8
2018-04-27T15:57:29.244Z,17.7
2018-04-27T15:58:49.169Z,17.7
2018-04-27T16:00:09.042Z,17.7
2018-04-27T16:01:28.872Z,17.6
2018-04-27T16:02:51.235Z,17.6
2018-04-27T16:04:13.596Z,17.6
2018-04-27T16:05:33.435Z,17.6
2018-04-27T16:06:55.797Z,17.5
2018-04-27T16:08:18.208Z,17.5
2018-04-27T16:09:38.034Z,17.3
2018-04-27T16:11:00.385Z,17.2
2018-04-27T16:12:22.763Z,17.2
2018-04-27T16:13:42.619Z,17.1
2018-04-27T16:15:10.064Z,17.2
2018-04-27T16:16:32.458Z,17.3
2018-04-27T16:17:54.859Z,17.3
2018-04-27T16:19:14.691Z,17.3
2018-04-27T16:20:39.602Z,17.3
2018-04-27T16:21:59.504Z,17.2
2018-04-27T16:23:21.911Z,17.2
2018-04-27T16:25:07.110Z,17
2018-04-27T16:26:29.495Z,17.2
2018-04-27T16:27:51.925Z,17
2018-04-27T16:29:16.879Z,16.9
2018-04-27T16:30:41.798Z,17
2018-04-27T16:32:04.176Z,17
2018-04-27T16:33:29.068Z,17
2018-04-27T16:34:51.483Z,17
2018-04-27T16:36:11.340Z,16.9
2018-04-27T16:37:31.216Z,16.9
2018-04-27T16:39:01.246Z,16.9
2018-04-27T16:40:31.227Z,16.9
2018-04-27T16:41:56.225Z,17.1
2018-04-27T16:43:21.273Z,16.9
2018-04-27T16:44:41.232Z,17
2018-04-27T16:46:01.121Z,17
2018-04-27T16:47:23.490Z,17
2018-04-27T16:48:43.317Z,17
2018-04-27T16:50:03.199Z,17.1
2018-04-27T16:51:23.079Z,17.1
2018-04-27T16:52:45.459Z,16.9
2018-04-27T16:54:07.814Z,16.9
2018-04-27T16:55:27.676Z,16.9
2018-04-27T16:56:52.631Z,16.9
2018-04-27T16:58:17.529Z,16.9
2018-04-27T16:59:39.919Z,17
2018-04-27T17:00:59.748Z,17
2018-04-27T17:02:19.575Z,16.9
2018-04-27T17:03:42.027Z,16.9
2018-04-27T17:05:01.974Z,16.9
2018-04-27T17:06:21.851Z,16.9
2018-04-27T17:07:46.780Z,16.9
2018-04-27T17:09:09.152Z,16.9
2018-04-27T17:10:28.976Z,16.9
2018-04-27T17:11:48.819Z,17
2018-04-27T17:13:23.879Z,17
2018-04-27T17:14:43.724Z,16.9
2018-04-27T17:16:03.569Z,16.9
2018-04-27T17:17:28.514Z,16.9
2018-04-27T17:18:55.933Z,17.1
2018-04-27T17:20:25.912Z,17.1
2018-04-27T17:21:45.788Z,17.1
2018-04-27T17:23:05.653Z,17.1
2018-04-27T17:24:28.037Z,17.1
2018-04-27T17:25:52.996Z,17.2
2018-04-27T17:27:12.820Z,17.2
2018-04-27T17:28:35.292Z,17.1
2018-04-27T17:29:55.148Z,16.9
2018-04-27T17:31:15.032Z,16.9
2018-04-27T17:32:45.000Z,16.8
2018-04-27T17:34:04.845Z,16.8
2018-04-27T17:35:24.733Z,16.7
2018-04-27T17:36:44.695Z,16.8
2018-04-27T17:38:09.588Z,16.8
2018-04-27T17:39:29.466Z,16.8
2018-04-27T17:40:49.309Z,16.7
2018-04-27T17:42:09.170Z,17
2018-04-27T17:43:29.095Z,16.4
2018-04-27T17:44:48.967Z,16.9
2018-04-27T17:46:08.857Z,16.9
2018-04-27T17:47:36.334Z,16.8
2018-04-27T17:48:56.164Z,16.6
2018-04-27T17:50:18.557Z,16.7
2018-04-27T17:51:38.393Z,16.8
2018-04-27T17:52:58.231Z,16.7
2018-04-27T17:54:18.066Z,16.5
2018-04-27T17:55:37.967Z,16.7
2018-04-27T17:57:00.403Z,16.7
2018-04-27T17:58:20.300Z,16.7
2018-04-27T17:59:45.196Z,16.6
2018-04-27T18:01:07.616Z,16.6
2018-04-27T18:02:32.505Z,16.6
2018-04-27T18:03:54.942Z,16.6
2018-04-27T18:05:19.848Z,16.6
2018-04-27T18:06:39.685Z,16.6
2018-04-27T18:07:59.523Z,16.5
2018-04-27T18:09:19.406Z,16.5
2018-04-27T18:10:39.282Z,16.5
2018-04-27T18:13:26.268Z,16.4
2018-04-27T18:14:51.165Z,16.4
2018-04-27T18:16:10.979Z,16.5
2018-04-27T18:17:33.391Z,16.5
2018-04-27T18:18:55.762Z,16.4
2018-04-27T18:20:20.679Z,16.3
2018-04-27T18:21:43.130Z,16.3